Time;durP1;ratioP1;P1;durP2;ratioP2;P2;SDS_P1;SDS_P2;PMS_P1;PMS_P2;Temp;Humidity;BMP_temperature;BMP_pressure;BME280_temperature;BME280_humidity;BME280_pressure;Samples;Min_cycle;Max_cycle;Signal;HPM_P1;HPM_P2
2023/07/17 00:02:00;;;;;;;;;;;;;;;16.55;68.33;95586.16;6323322;28;20404;-69
2023/07/17 00:05:08;;;;;;;;;;;;;;;16.64;68.25;95583.47;6323759;28;19924;-69
2023/07/17 00:08:11;;;;;;;;;;;;;;;16.69;68.31;95583.81;6323625;28;19978;-69
2023/07/17 00:11:12;;;;;;;;;;;;;;;16.69;68.08;95587.28;6305323;28;20286;-70
2023/07/17 00:14:18;;;;;;;;;;;;;;;16.71;67.89;95585.31;6323404;28;19924;-70
2023/07/17 00:17:24;;;;;;;;;;;;;;;16.74;67.90;95589.47;6323471;28;20002;-70
2023/07/17 00:20:25;;;;;;;;;;;;;;;16.75;67.68;95585.78;6322631;28;19962;-69
2023/07/17 00:23:28;;;;;;;;;;;;;;;16.76;68.08;95593.63;6323278;28;19923;-70
2023/07/17 00:26:31;;;;;;;;;;;;;;;16.78;68.21;95590.78;6304924;28;20252;-69
2023/07/17 00:29:40;;;;;;;;;;;;;;;16.80;67.93;95589.63;6304917;28;19924;-69
2023/07/17 00:32:46;;;;;;;;;;;;;;;16.82;67.77;95576.19;6323376;28;19923;-70
2023/07/17 00:35:47;;;;;;;;;;;;;;;16.83;68.07;95577.84;6322341;28;19931;-69
2023/07/17 00:38:48;;;;;;;;;;;;;;;16.88;67.92;95572.84;6303976;28;19924;-70
2023/07/17 00:41:51;;;;;;;;;;;;;;;16.94;67.51;95569.50;6322193;28;20321;-69
2023/07/17 00:44:54;;;;;;;;;;;;;;;16.95;67.50;95580.97;6305130;28;19928;-69
2023/07/17 00:47:55;;;;;;;;;;;;;;;16.96;67.84;95572.00;6322721;28;19931;-69
2023/07/17 00:50:56;;;;;;;;;;;;;;;16.98;67.77;95573.47;6322172;28;20312;-70
2023/07/17 00:54:00;;;;;;;;;;;;;;;17.00;67.65;95571.47;6322000;28;20427;-70
2023/07/17 00:57:03;;;;;;;;;;;;;;;17.03;67.68;95571.13;6321977;28;19924;-70
2023/07/17 01:00:05;;;;;;;;;;;;;;;17.09;67.54;95566.97;6321867;28;20018;-69
2023/07/17 01:03:07;;;;;;;;;;;;;;;17.18;67.28;95570.41;6303900;28;19924;-70
2023/07/17 01:06:09;;;;;;;;;;;;;;;17.26;67.19;95579.19;6321373;28;20017;-69
2023/07/17 01:09:11;;;;;;;;;;;;;;;17.32;66.94;95574.19;6322328;28;20305;-70
2023/07/17 01:12:14;;;;;;;;;;;;;;;17.35;67.22;95566.69;6321834;28;20011;-69
2023/07/17 01:15:17;;;;;;;;;;;;;;;17.38;66.92;95571.69;6321986;28;19928;-68
2023/07/17 01:18:23;;;;;;;;;;;;;;;17.39;66.93;95568.00;6287751;28;19924;-69
2023/07/17 01:21:27;;;;;;;;;;;;;;;17.41;66.79;95565.16;6321752;28;19924;-69
2023/07/17 01:24:28;;;;;;;;;;;;;;;17.46;67.13;95563.63;6321320;28;19924;-70
2023/07/17 01:27:29;;;;;;;;;;;;;;;17.53;66.45;95560.31;6321721;28;19924;-70
2023/07/17 01:30:38;;;;;;;;;;;;;;;17.57;66.91;95564.25;6321815;28;20484;-70
2023/07/17 01:33:40;;;;;;;;;;;;;;;17.57;66.71;95569.56;6321032;28;20420;-70
2023/07/17 01:36:43;;;;;;;;;;;;;;;17.55;66.55;95571.56;6321507;28;20390;-68
2023/07/17 01:39:44;;;;;;;;;;;;;;;17.48;66.60;95572.28;6320381;28;19975;-69
2023/07/17 01:42:48;;;;;;;;;;;;;;;17.42;66.96;95572.97;6321380;28;19923;-69
2023/07/17 01:45:49;;;;;;;;;;;;;;;17.40;67.11;95574.97;6302456;28;19924;-69
2023/07/17 01:48:50;;;;;;;;;;;;;;;17.41;67.25;95581.97;6302490;28;19935;-69
2023/07/17 01:51:57;;;;;;;;;;;;;;;17.52;67.06;95588.72;6321153;28;19928;-69
2023/07/17 01:55:01;;;;;;;;;;;;;;;17.45;67.11;95588.59;6303442;28;19928;-69
2023/07/17 01:58:05;;;;;;;;;;;;;;;17.47;66.96;95591.91;6321321;28;19924;-70
2023/07/17 02:01:07;;;;;;;;;;;;;;;17.52;66.99;95594.03;6285859;28;19931;-69
2023/07/17 02:04:08;;;;;;;;;;;;;;;17.55;66.92;95599.03;6320073;28;19924;-69
2023/07/17 02:07:10;;;;;;;;;;;;;;;17.56;66.81;95605.16;6319858;28;20017;-70
2023/07/17 02:10:12;;;;;;;;;;;;;;;17.55;66.76;95601.69;6320285;28;19928;-69
2023/07/17 02:13:16;;;;;;;;;;;;;;;17.46;66.98;95600.03;6320600;28;20397;-69
2023/07/17 02:16:17;;;;;;;;;;;;;;;17.39;67.30;95594.59;6301640;28;19963;-69
2023/07/17 02:19:21;;;;;;;;;;;;;;;17.15;67.53;95597.34;6320705;28;20413;-69
2023/07/17 02:22:24;;;;;;;;;;;;;;;16.92;68.12;95597.25;6301459;28;19923;-69
2023/07/17 02:25:30;;;;;;;;;;;;;;;16.86;68.71;95587.31;6320348;28;19924;-69
2023/07/17 02:28:31;;;;;;;;;;;;;;;16.91;68.41;95585.78;6319144;28;19931;-69
2023/07/17 02:31:39;;;;;;;;;;;;;;;17.00;68.18;95590.06;6301970;28;19936;-70
2023/07/17 02:34:40;;;;;;;;;;;;;;;17.09;68.01;95587.41;6319697;28;20022;-69
2023/07/17 02:37:44;;;;;;;;;;;;;;;17.17;67.96;95587.38;6319984;28;19923;-68
2023/07/17 02:40:47;;;;;;;;;;;;;;;17.36;67.26;95584.31;6320191;28;19924;-70
2023/07/17 02:43:51;;;;;;;;;;;;;;;17.46;67.04;95587.56;6302621;28;19989;-70
2023/07/17 02:46:54;;;;;;;;;;;;;;;17.55;66.86;95592.84;6320119;28;20316;-70
2023/07/17 02:49:56;;;;;;;;;;;;;;;17.54;66.83;95586.72;6318952;28;20336;-70
2023/07/17 02:52:59;;;;;;;;;;;;;;;17.57;66.79;95585.53;6319059;28;19924;-70
2023/07/17 02:56:03;;;;;;;;;;;;;;;17.66;66.75;95595.97;6319733;28;19927;-71
2023/07/17 02:59:07;;;;;;;;;;;;;;;17.84;66.28;95590.41;6300747;28;20328;-69
2023/07/17 03:02:08;;;;;;;;;;;;;;;17.91;65.66;95599.31;6319264;28;19920;-70
2023/07/17 03:05:12;;;;;;;;;;;;;;;18.03;66.12;95596.25;6319825;28;19924;-71
2023/07/17 03:08:13;;;;;;;;;;;;;;;18.10;66.17;95594.56;6318624;28;19931;-69
2023/07/17 03:11:19;;;;;;;;;;;;;;;18.03;65.88;95596.25;6318644;28;20022;-70
2023/07/17 03:14:23;;;;;;;;;;;;;;;18.03;66.15;95606.91;6301518;28;19924;-70
2023/07/17 03:17:26;;;;;;;;;;;;;;;17.86;66.19;95615.00;6319514;28;19924;-70
2023/07/17 03:20:27;;;;;;;;;;;;;;;18.02;65.67;95610.59;6319515;28;19930;-70
2023/07/17 03:23:28;;;;;;;;;;;;;;;17.69;66.68;95608.94;6318832;28;19932;-69
2023/07/17 03:26:32;;;;;;;;;;;;;;;17.49;67.46;95605.88;6320329;28;19924;-69
2023/07/17 03:29:33;;;;;;;;;;;;;;;17.07;68.68;95600.88;6323484;28;20362;-71
2023/07/17 03:32:36;;;;;;;;;;;;;;;16.96;69.35;95604.72;6323462;28;20013;-71
2023/07/17 03:35:37;;;;;;;;;;;;;;;16.98;69.81;95613.31;6323201;28;19959;-69
2023/07/17 03:38:41;;;;;;;;;;;;;;;17.15;70.22;95618.59;6298778;28;20404;-69
2023/07/17 03:41:45;;;;;;;;;;;;;;;17.70;68.65;95617.72;6298940;28;19925;-70
2023/07/17 03:44:48;;;;;;;;;;;;;;;18.33;67.27;95619.34;6298833;28;20345;-72
2023/07/17 03:47:50;;;;;;;;;;;;;;;18.97;64.69;95616.31;6298585;28;20212;-70
2023/07/17 03:50:55;;;;;;;;;;;;;;;19.21;63.36;95625.88;6299076;28;19924;-70
2023/07/17 03:54:00;;;;;;;;;;;;;;;19.12;63.28;95619.00;6298713;28;19925;-70
2023/07/17 03:57:04;;;;;;;;;;;;;;;18.96;63.48;95614.63;6298563;28;19924;-70
2023/07/17 04:00:13;;;;;;;;;;;;;;;18.84;63.84;95611.59;6298519;28;19921;-70
2023/07/17 04:03:15;;;;;;;;;;;;;;;18.55;64.74;95606.19;6280295;28;20154;-70
2023/07/17 04:06:18;;;;;;;;;;;;;;;18.47;65.13;95608.91;6297644;28;20393;-69
2023/07/17 04:09:20;;;;;;;;;;;;;;;18.55;65.27;95622.19;6297924;28;19930;-70
2023/07/17 04:12:21;;;;;;;;;;;;;;;18.55;65.14;95619.50;6298426;28;19924;-70
2023/07/17 04:15:30;;;;;;;;;;;;;;;18.42;65.63;95627.28;6298210;28;20021;-69
2023/07/17 04:18:36;;;;;;;;;;;;;;;18.28;66.01;95631.53;6298303;28;20365;-69
2023/07/17 04:21:38;;;;;;;;;;;;;;;18.21;66.79;95626.09;6280223;28;19931;-69
2023/07/17 04:24:42;;;;;;;;;;;;;;;18.23;66.98;95629.41;6297560;28;19981;-70
2023/07/17 04:27:46;;;;;;;;;;;;;;;18.10;67.79;95634.50;6296331;28;19934;-69
2023/07/17 04:30:49;;;;;;;;;;;;;;;18.27;67.21;95636.03;6298138;28;19921;-70
2023/07/17 04:33:50;;;;;;;;;;;;;;;18.04;67.51;95637.84;6297791;28;19935;-69
2023/07/17 04:36:51;;;;;;;;;;;;;;;17.81;68.33;95636.00;6307431;28;19924;-70
2023/07/17 04:39:53;;;;;;;;;;;;;;;17.44;69.74;95639.28;6320297;28;19924;-68
2023/07/17 04:43:02;;;;;;;;;;;;;;;17.14;70.51;95638.22;6321927;28;19924;-69
2023/07/17 04:46:03;;;;;;;;;;;;;;;17.39;70.63;95637.13;6321511;28;20014;-71
2023/07/17 04:49:04;;;;;;;;;;;;;;;17.70;69.93;95633.69;6321124;28;19924;-70
2023/07/17 04:52:10;;;;;;;;;;;;;;;18.12;69.55;95637.81;6322388;28;20301;-69
2023/07/17 04:55:13;;;;;;;;;;;;;;;18.55;68.64;95632.84;6321936;28;19924;-70
2023/07/17 04:58:19;;;;;;;;;;;;;;;18.89;66.78;95637.72;6322321;28;20401;-72
2023/07/17 05:01:26;;;;;;;;;;;;;;;18.72;66.08;95634.34;6304169;28;19928;-69
2023/07/17 05:04:32;;;;;;;;;;;;;;;18.44;66.59;95630.59;6321029;28;20301;-70
2023/07/17 05:07:33;;;;;;;;;;;;;;;18.31;67.33;95633.84;6321489;28;20309;-69
2023/07/17 05:10:37;;;;;;;;;;;;;;;17.76;68.36;95633.00;6321754;28;19931;-71
2023/07/17 05:13:41;;;;;;;;;;;;;;;17.66;69.53;95632.34;6321755;28;19957;-70
2023/07/17 05:16:42;;;;;;;;;;;;;;;17.68;70.40;95630.38;6321532;28;19954;-70
2023/07/17 05:19:45;;;;;;;;;;;;;;;17.77;69.76;95624.00;6321889;28;19931;-71
2023/07/17 05:22:47;;;;;;;;;;;;;;;18.29;69.54;95617.22;6303806;28;19931;-70
2023/07/17 05:25:54;;;;;;;;;;;;;;;18.39;68.75;95618.63;6303571;28;19928;-70
2023/07/17 05:28:55;;;;;;;;;;;;;;;18.42;68.63;95624.59;6321008;28;20428;-70
2023/07/17 05:31:57;;;;;;;;;;;;;;;18.47;68.57;95619.56;6303209;28;19926;-69
2023/07/17 05:34:59;;;;;;;;;;;;;;;18.61;68.22;95614.28;6321624;28;19924;-69
2023/07/17 05:38:01;;;;;;;;;;;;;;;18.77;68.24;95629.34;6303068;28;20030;-70
2023/07/17 05:41:09;;;;;;;;;;;;;;;18.89;65.76;95628.91;6321160;28;20417;-71
2023/07/17 05:44:15;;;;;;;;;;;;;;;18.21;67.66;95641.25;6321533;28;19943;-69
2023/07/17 05:47:16;;;;;;;;;;;;;;;17.82;68.86;95637.63;6320500;28;20336;-70
2023/07/17 05:50:19;;;;;;;;;;;;;;;18.14;69.41;95649.09;6320081;28;19931;-70
2023/07/17 05:53:25;;;;;;;;;;;;;;;18.24;69.04;95640.88;6321224;28;19923;-70
2023/07/17 05:56:29;;;;;;;;;;;;;;;18.30;69.86;95645.50;6321090;28;19924;-69
2023/07/17 05:59:32;;;;;;;;;;;;;;;18.28;69.43;95635.00;6302087;28;20013;-69
2023/07/17 06:02:38;;;;;;;;;;;;;;;18.31;70.60;95632.00;6320854;28;20413;-69
2023/07/17 06:05:39;;;;;;;;;;;;;;;18.58;69.74;95641.28;6320606;28;19990;-69
2023/07/17 06:08:41;;;;;;;;;;;;;;;18.58;69.00;95643.13;6320005;28;19928;-69
2023/07/17 06:11:45;;;;;;;;;;;;;;;18.67;67.89;95642.03;6319675;28;19931;-70
2023/07/17 06:14:51;;;;;;;;;;;;;;;18.43;68.45;95644.91;6303055;28;19924;-70
2023/07/17 06:17:52;;;;;;;;;;;;;;;18.62;68.54;95652.41;6320350;28;19931;-70
2023/07/17 06:20:55;;;;;;;;;;;;;;;19.00;67.36;95647.94;6320454;28;19924;-69
2023/07/17 06:23:56;;;;;;;;;;;;;;;19.41;66.14;95649.34;6319679;28;19924;-71
2023/07/17 06:27:00;;;;;;;;;;;;;;;19.45;64.95;95645.31;6301507;28;20399;-70
2023/07/17 06:30:04;;;;;;;;;;;;;;;19.04;65.63;95640.41;6320296;28;19928;-69
2023/07/17 06:33:05;;;;;;;;;;;;;;;18.96;66.53;95640.47;6319690;28;19920;-70
2023/07/17 06:36:09;;;;;;;;;;;;;;;18.64;67.56;95642.41;6319178;28;19924;-70
2023/07/17 06:39:10;;;;;;;;;;;;;;;18.73;67.06;95651.16;6319946;28;19989;-70
2023/07/17 06:42:11;;;;;;;;;;;;;;;18.49;67.46;95641.53;6320218;28;19924;-70
2023/07/17 06:45:13;;;;;;;;;;;;;;;17.83;69.45;95643.78;6319439;28;20054;-70
2023/07/17 06:48:16;;;;;;;;;;;;;;;17.80;70.73;95650.28;6319117;28;20298;-70
2023/07/17 06:51:26;;;;;;;;;;;;;;;18.36;70.78;95639.47;6319962;28;20018;-70
2023/07/17 06:54:27;;;;;;;;;;;;;;;19.80;67.56;95640.22;6320105;28;20305;-70
2023/07/17 06:57:31;;;;;;;;;;;;;;;22.15;61.83;95640.81;6319807;28;20404;-71
2023/07/17 07:00:35;;;;;;;;;;;;;;;24.14;55.72;95638.00;6319159;28;20316;-70
2023/07/17 07:03:40;;;;;;;;;;;;;;;23.79;54.60;95629.50;6319718;28;19924;-70
2023/07/17 07:06:41;;;;;;;;;;;;;;;22.62;56.88;95629.19;6301369;28;20058;-71
2023/07/17 07:09:44;;;;;;;;;;;;;;;21.50;58.47;95630.47;6319643;28;19924;-70
2023/07/17 07:12:48;;;;;;;;;;;;;;;20.62;61.37;95624.69;6319654;28;19928;-71
2023/07/17 07:15:51;;;;;;;;;;;;;;;20.26;62.42;95631.91;6319923;28;19932;-72
2023/07/17 07:18:52;;;;;;;;;;;;;;;20.42;61.76;95621.78;6319778;28;20007;-70
2023/07/17 07:21:55;;;;;;;;;;;;;;;20.88;61.23;95623.25;6319516;28;19947;-70
2023/07/17 07:24:59;;;;;;;;;;;;;;;24.11;52.42;95616.94;6319597;28;19924;-70
2023/07/17 07:28:03;;;;;;;;;;;;;;;24.06;51.48;95624.84;6319510;28;20023;-70
2023/07/17 07:31:04;;;;;;;;;;;;;;;24.07;51.22;95613.06;6319704;28;19931;-70
2023/07/17 07:34:07;;;;;;;;;;;;;;;25.94;48.17;95615.84;6319474;28;20023;-69
2023/07/17 07:37:08;;;;;;;;;;;;;;;25.86;46.55;95618.03;6318129;28;20002;-71
2023/07/17 07:40:15;;;;;;;;;;;;;;;25.34;48.38;95621.06;6319367;28;19924;-71
2023/07/17 07:43:20;;;;;;;;;;;;;;;27.67;44.00;95602.34;6301481;28;19924;-70
2023/07/17 07:46:27;;;;;;;;;;;;;;;30.14;39.92;95613.53;6319224;28;19934;-72
2023/07/17 07:49:30;;;;;;;;;;;;;;;30.82;38.40;95603.97;6300924;28;19964;-71
2023/07/17 07:52:31;;;;;;;;;;;;;;;29.69;36.30;95607.28;6318534;28;20030;-70
2023/07/17 07:55:32;;;;;;;;;;;;;;;27.94;39.18;95596.41;6318682;28;20416;-72
2023/07/17 07:58:33;;;;;;;;;;;;;;;26.49;41.19;95589.78;6318140;28;19940;-70
2023/07/17 08:01:34;;;;;;;;;;;;;;;24.86;44.73;95584.81;6319108;28;19931;-71
2023/07/17 08:04:36;;;;;;;;;;;;;;;24.11;47.98;95587.38;6318524;28;19931;-71
2023/07/17 08:07:37;;;;;;;;;;;;;;;23.39;50.15;95591.19;6319316;28;20058;-71
2023/07/17 08:10:39;;;;;;;;;;;;;;;23.08;51.10;95584.66;6318214;28;19930;-70
2023/07/17 08:13:42;;;;;;;;;;;;;;;23.23;50.46;95577.16;6320133;28;20412;-70
2023/07/17 08:16:46;;;;;;;;;;;;;;;22.50;51.87;95571.03;6323394;28;19924;-71
2023/07/17 08:19:49;;;;;;;;;;;;;;;22.34;52.64;95591.84;6322474;28;19930;-72
2023/07/17 08:22:54;;;;;;;;;;;;;;;21.96;53.03;95592.34;6323412;28;19966;-72
2023/07/17 08:25:58;;;;;;;;;;;;;;;21.53;53.82;95573.03;6322354;28;19931;-70
2023/07/17 08:29:03;;;;;;;;;;;;;;;21.04;57.90;95596.22;6323082;28;19931;-72
2023/07/17 08:32:05;;;;;;;;;;;;;;;19.36;62.88;95595.72;6287591;28;20028;-72
2023/07/17 08:35:10;;;;;;;;;;;;;;;18.45;67.58;95602.94;6322904;28;19931;-77
2023/07/17 08:38:13;;;;;;;;;;;;;;;17.83;70.04;95628.66;6322533;28;19935;-76
2023/07/17 08:41:14;;;;;;;;;;;;;;;17.56;72.19;95621.13;6322953;28;19923;-73
2023/07/17 08:44:20;;;;;;;;;;;;;;;17.79;74.17;95614.03;6322726;28;20010;-73
2023/07/17 08:47:24;;;;;;;;;;;;;;;17.78;75.42;95631.03;6321840;28;20355;-73
2023/07/17 08:50:25;;;;;;;;;;;;;;;17.58;77.40;95613.78;6322098;28;19924;-71
2023/07/17 08:53:27;;;;;;;;;;;;;;;17.64;79.32;95624.56;6321540;28;19924;-72
2023/07/17 08:56:31;;;;;;;;;;;;;;;17.72;79.60;95624.53;6322689;28;20344;-72
2023/07/17 08:59:36;;;;;;;;;;;;;;;17.62;78.66;95633.72;6322065;28;20022;-72
2023/07/17 09:02:37;;;;;;;;;;;;;;;17.14;79.89;95628.41;6321508;28;19924;-75
2023/07/17 09:05:43;;;;;;;;;;;;;;;17.43;80.31;95627.81;6322264;28;19928;-75
2023/07/17 09:08:44;;;;;;;;;;;;;;;17.40;80.14;95614.84;6321438;28;20443;-76
2023/07/17 09:12:04;;;;;;;;;;;;;;;18.34;81.49;95609.50;6304892;28;19920;-74
2023/07/17 09:15:08;;;;;;;;;;;;;;;20.44;78.82;95618.09;6321939;28;19924;-71
2023/07/17 09:18:19;;;;;;;;;;;;;;;21.73;74.79;95618.63;6321889;28;19920;-69
2023/07/17 09:21:22;;;;;;;;;;;;;;;22.39;74.46;95616.19;6321105;28;19970;-70
2023/07/17 09:24:26;;;;;;;;;;;;;;;22.54;69.28;95615.16;6320735;28;19920;-72
2023/07/17 09:27:29;;;;;;;;;;;;;;;21.76;68.27;95612.88;6321637;28;20309;-71
2023/07/17 09:30:32;;;;;;;;;;;;;;;22.22;70.93;95617.56;6321796;28;19923;-71
2023/07/17 09:33:37;;;;;;;;;;;;;;;23.79;70.19;95618.75;6321538;28;20010;-73
2023/07/17 09:36:38;;;;;;;;;;;;;;;24.74;59.19;95621.56;6319841;28;19931;-71
2023/07/17 09:39:42;;;;;;;;;;;;;;;24.54;58.40;95618.16;6321583;28;19924;-72
2023/07/17 09:42:53;;;;;;;;;;;;;;;23.82;57.50;95606.75;6320642;28;19924;-72
2023/07/17 09:46:00;;;;;;;;;;;;;;;22.73;60.26;95627.75;6321122;28;20382;-72
2023/07/17 09:49:03;;;;;;;;;;;;;;;21.79;62.54;95617.81;6321396;28;19923;-73
2023/07/17 09:52:05;;;;;;;;;;;;;;;21.16;65.36;95615.22;6319862;28;20309;-73
2023/07/17 09:55:11;;;;;;;;;;;;;;;20.81;64.74;95617.03;6321237;28;20400;-72
2023/07/17 09:58:13;;;;;;;;;;;;;;;20.36;65.94;95675.16;6320587;28;20030;-73
2023/07/17 10:01:19;;;;;;;;;;;;;;;19.40;69.79;95637.84;6320260;28;19954;-73
2023/07/17 10:04:30;;;;;;;;;;;;;;;19.05;75.03;95639.38;6320812;28;20393;-73
2023/07/17 10:07:33;;;;;;;;;;;;;;;19.18;76.47;95644.91;6320134;28;19935;-72
2023/07/17 10:10:40;;;;;;;;;;;;;;;19.01;76.93;95638.09;6321024;28;19924;-73
2023/07/17 10:13:44;;;;;;;;;;;;;;;19.60;78.02;95631.94;6320787;28;19924;-73
2023/07/17 10:16:51;;;;;;;;;;;;;;;19.87;76.15;95628.63;6320096;28;19951;-75
2023/07/17 10:19:58;;;;;;;;;;;;;;;19.66;76.28;95628.56;6320127;28;19924;-75
2023/07/17 10:23:01;;;;;;;;;;;;;;;19.63;76.64;95632.41;6319855;28;20487;-77
2023/07/17 10:26:08;;;;;;;;;;;;;;;19.55;75.68;95637.00;6319999;28;20296;-76
2023/07/17 10:29:11;;;;;;;;;;;;;;;19.31;76.63;95632.81;6319756;28;20305;-75
2023/07/17 10:32:18;;;;;;;;;;;;;;;19.70;76.86;95641.34;6320449;28;19920;-74
2023/07/17 10:35:19;;;;;;;;;;;;;;;19.85;75.00;95629.81;6319163;28;20005;-73
2023/07/17 10:38:24;;;;;;;;;;;;;;;20.22;72.72;95636.81;6319841;28;19924;-73
2023/07/17 10:41:26;;;;;;;;;;;;;;;20.49;72.27;95627.19;6319864;28;20027;-72
2023/07/17 10:44:33;;;;;;;;;;;;;;;20.85;69.78;95627.13;6320041;28;19924;-73
2023/07/17 10:47:37;;;;;;;;;;;;;;;21.04;69.01;95628.31;6319740;28;19930;-73
2023/07/17 10:50:48;;;;;;;;;;;;;;;21.18;69.92;95639.91;6319943;28;19924;-72
2023/07/17 10:53:53;;;;;;;;;;;;;;;21.35;65.54;95639.63;6319314;28;20055;-73
2023/07/17 10:56:56;;;;;;;;;;;;;;;21.34;66.11;95646.78;6302151;28;20594;-73
2023/07/17 10:59:57;;;;;;;;;;;;;;;21.22;66.52;95641.16;6319153;28;20074;-72
2023/07/17 11:03:01;;;;;;;;;;;;;;;21.08;70.31;95637.56;6301714;28;19924;-72
2023/07/17 11:06:04;;;;;;;;;;;;;;;21.09;66.40;95654.47;6319632;28;19924;-72
2023/07/17 11:09:08;;;;;;;;;;;;;;;20.92;66.92;95647.72;6319931;28;19931;-71
2023/07/17 11:12:14;;;;;;;;;;;;;;;20.96;65.95;95643.66;6319785;28;20364;-71
2023/07/17 11:15:19;;;;;;;;;;;;;;;20.98;65.18;95657.69;6302046;28;19927;-70
2023/07/17 11:18:22;;;;;;;;;;;;;;;20.81;66.35;95649.09;6318872;28;19928;-70
2023/07/17 11:21:25;;;;;;;;;;;;;;;21.02;62.22;95646.38;6318582;28;19931;-71
2023/07/17 11:24:27;;;;;;;;;;;;;;;20.90;62.96;95645.28;6318985;28;19924;-69
2023/07/17 11:27:31;;;;;;;;;;;;;;;21.15;65.72;95637.63;6318506;28;19924;-70
2023/07/17 11:30:32;;;;;;;;;;;;;;;22.16;64.75;95645.13;6318668;28;19928;-71
2023/07/17 11:33:36;;;;;;;;;;;;;;;23.34;61.04;95647.34;6319110;28;20073;-70
2023/07/17 11:36:44;;;;;;;;;;;;;;;23.70;59.64;95642.34;6318061;28;19924;-69
2023/07/17 11:39:51;;;;;;;;;;;;;;;24.01;58.09;95648.03;6318870;28;19924;-69
2023/07/17 11:42:57;;;;;;;;;;;;;;;24.05;55.07;95654.59;6319267;28;19924;-69
2023/07/17 11:46:02;;;;;;;;;;;;;;;23.82;51.58;95647.06;6301245;28;19924;-70
2023/07/17 11:49:08;;;;;;;;;;;;;;;23.32;51.58;95652.91;6323405;28;19942;-70
2023/07/17 11:52:18;;;;;;;;;;;;;;;23.30;51.33;95663.88;6324195;28;19919;-70
2023/07/17 11:55:21;;;;;;;;;;;;;;;23.44;50.82;95631.63;6323555;28;19943;-70
2023/07/17 11:58:25;;;;;;;;;;;;;;;23.72;51.33;95651.03;6323018;28;19919;-70
2023/07/17 12:01:29;;;;;;;;;;;;;;;23.95;48.71;95633.56;6323194;28;19931;-70
2023/07/17 12:04:39;;;;;;;;;;;;;;;23.91;47.86;95654.66;6323213;28;19924;-70
2023/07/17 12:07:40;;;;;;;;;;;;;;;24.10;47.24;95638.66;6323528;28;20033;-71
2023/07/17 12:10:44;;;;;;;;;;;;;;;24.57;45.41;95656.22;6322613;28;19924;-71
2023/07/17 12:13:49;;;;;;;;;;;;;;;24.26;46.33;95662.38;6323491;28;19931;-69
2023/07/17 12:16:52;;;;;;;;;;;;;;;24.18;47.32;95655.38;6323454;28;19924;-69
2023/07/17 12:19:58;;;;;;;;;;;;;;;24.24;47.26;95660.94;6323406;28;20332;-70
2023/07/17 12:22:59;;;;;;;;;;;;;;;24.08;47.20;95649.63;6322325;28;19924;-69
2023/07/17 12:26:03;;;;;;;;;;;;;;;23.92;47.46;95647.41;6321911;28;19924;-70
2023/07/17 12:29:06;;;;;;;;;;;;;;;23.34;48.76;95652.72;6321956;28;19931;-69
2023/07/17 12:32:08;;;;;;;;;;;;;;;23.08;49.22;95673.19;6304440;28;19954;-70
2023/07/17 12:35:09;;;;;;;;;;;;;;;22.77;50.40;95653.13;6321850;28;19924;-69
2023/07/17 12:38:11;;;;;;;;;;;;;;;22.94;50.79;95658.91;6322061;28;19928;-70
2023/07/17 12:41:14;;;;;;;;;;;;;;;23.25;50.21;95660.16;6321107;28;20290;-69
2023/07/17 12:44:15;;;;;;;;;;;;;;;23.44;49.81;95663.84;6322266;28;19968;-70
2023/07/17 12:47:21;;;;;;;;;;;;;;;23.46;49.42;95661.78;6322513;28;19924;-70
2023/07/17 12:50:24;;;;;;;;;;;;;;;22.92;50.91;95660.16;6321401;28;19939;-69
2023/07/17 12:53:27;;;;;;;;;;;;;;;23.08;51.09;95657.09;6321616;28;19931;-69
2023/07/17 12:56:31;;;;;;;;;;;;;;;23.58;49.95;95660.13;6320881;28;19924;-70
2023/07/17 12:59:38;;;;;;;;;;;;;;;23.51;50.73;95649.38;6321530;28;19924;-70
2023/07/17 13:02:42;;;;;;;;;;;;;;;23.63;49.97;95656.78;6322072;28;20005;-69
2023/07/17 13:05:45;;;;;;;;;;;;;;;23.45;49.98;95660.97;6321468;28;19939;-69
2023/07/17 13:08:51;;;;;;;;;;;;;;;23.11;50.70;95656.66;6321922;28;19924;-69
2023/07/17 13:11:52;;;;;;;;;;;;;;;22.94;51.05;95660.78;6321331;28;19924;-70
2023/07/17 13:14:54;;;;;;;;;;;;;;;22.64;50.92;95653.09;6321335;28;20290;-70
2023/07/17 13:17:57;;;;;;;;;;;;;;;22.75;50.37;95660.53;6321811;28;19924;-69
2023/07/17 13:20:58;;;;;;;;;;;;;;;22.81;49.96;95657.03;6321203;28;19946;-70
2023/07/17 13:24:02;;;;;;;;;;;;;;;22.64;49.92;95663.81;6321133;28;19924;-70
2023/07/17 13:27:04;;;;;;;;;;;;;;;22.39;50.76;95667.09;6320745;28;19931;-69
2023/07/17 13:30:07;;;;;;;;;;;;;;;22.37;50.63;95663.78;6321511;28;19923;-71
2023/07/17 13:33:11;;;;;;;;;;;;;;;22.08;51.81;95664.91;6320985;28;19930;-70
2023/07/17 13:36:12;;;;;;;;;;;;;;;21.96;52.72;95672.69;6320230;28;19924;-71
2023/07/17 13:39:16;;;;;;;;;;;;;;;21.87;53.08;95673.06;6321318;28;20025;-71
2023/07/17 13:42:20;;;;;;;;;;;;;;;21.85;53.29;95681.28;6320363;28;19924;-70
2023/07/17 13:45:23;;;;;;;;;;;;;;;21.77;53.74;95684.16;6320511;28;19931;-70
2023/07/17 13:48:24;;;;;;;;;;;;;;;21.94;53.47;95680.09;6320401;28;19924;-71
2023/07/17 13:51:27;;;;;;;;;;;;;;;21.76;54.31;95671.78;6321350;28;19924;-70
2023/07/17 13:54:31;;;;;;;;;;;;;;;21.80;54.26;95673.03;6321068;28;19975;-69
2023/07/17 13:57:34;;;;;;;;;;;;;;;21.95;54.00;95670.22;6320028;28;19949;-71
2023/07/17 14:00:37;;;;;;;;;;;;;;;22.14;53.82;95664.09;6320517;28;19975;-70
2023/07/17 14:03:39;;;;;;;;;;;;;;;22.26;53.58;95672.41;6320010;28;19939;-70
2023/07/17 14:06:41;;;;;;;;;;;;;;;22.18;54.18;95664.56;6320178;28;20089;-70
2023/07/17 14:09:46;;;;;;;;;;;;;;;22.34;53.70;95658.84;6320039;28;19924;-70
2023/07/17 14:12:47;;;;;;;;;;;;;;;22.40;53.82;95662.56;6320352;28;19947;-70
2023/07/17 14:15:51;;;;;;;;;;;;;;;22.52;53.79;95663.59;6320451;28;20015;-69
2023/07/17 14:18:54;;;;;;;;;;;;;;;22.77;52.31;95669.22;6319781;28;20313;-70
2023/07/17 14:21:57;;;;;;;;;;;;;;;22.64;52.73;95675.38;6320544;28;19924;-70
2023/07/17 14:25:01;;;;;;;;;;;;;;;22.47;52.77;95667.94;6319599;28;20439;-70
2023/07/17 14:28:04;;;;;;;;;;;;;;;22.74;50.79;95669.63;6302224;28;19931;-69
2023/07/17 14:31:10;;;;;;;;;;;;;;;22.84;49.87;95674.56;6320234;28;20329;-70
2023/07/17 14:34:14;;;;;;;;;;;;;;;22.88;49.63;95680.38;6319208;28;19924;-71
2023/07/17 14:37:17;;;;;;;;;;;;;;;22.95;48.59;95675.81;6320004;28;19924;-70
2023/07/17 14:40:23;;;;;;;;;;;;;;;22.91;48.61;95679.97;6320047;28;20344;-70
2023/07/17 14:43:26;;;;;;;;;;;;;;;22.75;49.10;95679.31;6301657;28;20437;-71
2023/07/17 14:46:30;;;;;;;;;;;;;;;22.66;49.63;95690.44;6319897;28;19924;-71
2023/07/17 14:49:31;;;;;;;;;;;;;;;22.56;49.42;95689.00;6301722;28;19931;-72
2023/07/17 14:52:34;;;;;;;;;;;;;;;22.24;50.26;95695.09;6302101;28;20069;-70
2023/07/17 14:55:38;;;;;;;;;;;;;;;21.95;51.06;95700.50;6320010;28;20343;-70
2023/07/17 14:58:42;;;;;;;;;;;;;;;21.60;52.21;95698.84;6319835;28;20328;-69
2023/07/17 15:01:46;;;;;;;;;;;;;;;21.46;52.77;95690.78;6320093;28;19928;-71
2023/07/17 15:04:49;;;;;;;;;;;;;;;21.34;53.23;95699.47;6319515;28;20014;-70
2023/07/17 15:07:53;;;;;;;;;;;;;;;21.18;53.93;95700.63;6319792;28;20019;-69
2023/07/17 15:10:56;;;;;;;;;;;;;;;21.04;54.61;95700.50;6319623;28;19924;-70
2023/07/17 15:14:00;;;;;;;;;;;;;;;21.04;54.63;95705.84;6319792;28;20018;-71
2023/07/17 15:17:04;;;;;;;;;;;;;;;21.23;54.16;95704.38;6319349;28;19935;-70
2023/07/17 15:20:08;;;;;;;;;;;;;;;21.61;54.47;95709.38;6319662;28;20407;-69
2023/07/17 15:23:11;;;;;;;;;;;;;;;21.65;55.00;95709.81;6322294;28;19931;-70
2023/07/17 15:26:14;;;;;;;;;;;;;;;21.77;55.74;95716.28;6324949;28;20074;-69
2023/07/17 15:29:17;;;;;;;;;;;;;;;21.45;57.16;95712.34;6324624;28;20465;-71
2023/07/17 15:32:21;;;;;;;;;;;;;;;21.25;58.10;95722.88;6324710;28;20029;-70
2023/07/17 15:35:25;;;;;;;;;;;;;;;21.08;59.51;95723.16;6324613;28;20014;-71
2023/07/17 15:38:29;;;;;;;;;;;;;;;20.48;61.00;95724.41;6323920;28;19924;-70
2023/07/17 15:41:33;;;;;;;;;;;;;;;20.42;62.28;95727.84;6324313;28;20308;-69
2023/07/17 15:44:36;;;;;;;;;;;;;;;20.44;62.69;95733.84;6324407;28;20414;-70
2023/07/17 15:47:40;;;;;;;;;;;;;;;20.24;63.17;95730.09;6324041;28;20397;-70
2023/07/17 15:50:42;;;;;;;;;;;;;;;20.14;64.49;95730.41;6324548;28;20312;-71
2023/07/17 15:53:46;;;;;;;;;;;;;;;19.77;65.32;95734.03;6323890;28;20302;-69
2023/07/17 15:56:50;;;;;;;;;;;;;;;19.47;65.62;95733.97;6323815;28;20457;-69